createdAt,value
2022-12-03T00:01:23.800Z,97655.00
2022-12-03T00:03:52.175Z,97650.00
2022-12-03T00:06:20.529Z,97660.00
2022-12-03T00:08:48.768Z,97655.00
2022-12-03T00:11:18.434Z,97666.00
2022-12-03T00:13:46.625Z,97654.00
2022-12-03T00:16:15.053Z,97654.00
2022-12-03T00:18:43.338Z,97639.00
2022-12-03T00:21:11.558Z,97643.00
2022-12-03T00:23:42.324Z,97645.00
2022-12-03T00:26:11.032Z,97648.00
2022-12-03T00:28:40.552Z,97641.00
2022-12-03T00:31:08.790Z,97650.00
2022-12-03T00:33:37.000Z,97650.00
2022-12-03T00:36:05.876Z,97649.00
2022-12-03T00:38:34.161Z,97636.00
2022-12-03T00:41:02.321Z,97640.00
2022-12-03T00:43:30.507Z,97636.00
2022-12-03T00:46:00.157Z,97648.00
2022-12-03T00:48:28.424Z,97658.00
2022-12-03T00:50:56.724Z,97647.00
2022-12-03T00:53:24.881Z,97657.00
2022-12-03T00:55:53.192Z,97643.00
2022-12-03T00:58:21.372Z,97638.00
2022-12-03T01:00:49.604Z,97636.00
2022-12-03T01:03:19.109Z,97643.00
2022-12-03T01:05:47.357Z,97652.00
2022-12-03T01:08:15.673Z,97644.00
2022-12-03T01:10:43.906Z,97644.00
2022-12-03T01:13:12.188Z,97647.00
2022-12-03T01:15:40.492Z,97659.00
2022-12-03T01:18:08.933Z,97661.00
2022-12-03T01:20:38.693Z,97667.00
2022-12-03T01:23:07.203Z,97671.00
2022-12-03T01:25:35.528Z,97661.00
2022-12-03T01:28:03.770Z,97655.00
2022-12-03T01:30:52.014Z,97649.00
2022-12-03T01:33:19.247Z,97667.00
2022-12-03T01:35:48.837Z,97671.00
2022-12-03T01:38:17.042Z,97657.00
2022-12-03T01:40:46.148Z,97660.00
2022-12-03T01:43:14.313Z,97670.00
2022-12-03T01:45:42.667Z,97652.00
2022-12-03T01:48:15.334Z,97657.00
2022-12-03T01:50:45.292Z,97664.00
2022-12-03T01:53:19.238Z,97647.00
2022-12-03T01:55:48.991Z,97652.00
2022-12-03T01:58:21.740Z,97650.00
2022-12-03T02:00:50.118Z,97651.00
2022-12-03T02:03:26.320Z,97648.00
2022-12-03T02:05:54.700Z,97662.00
2022-12-03T02:08:33.731Z,97646.00
2022-12-03T02:11:06.816Z,97647.00
2022-12-03T02:13:35.216Z,97658.00
2022-12-03T02:16:04.677Z,97657.00
2022-12-03T02:18:33.073Z,97656.00
2022-12-03T02:21:10.693Z,97667.00
2022-12-03T02:23:50.222Z,97670.00
2022-12-03T02:26:20.315Z,97649.00
2022-12-03T02:28:48.663Z,97647.00
2022-12-03T02:31:17.225Z,97643.00
2022-12-03T02:33:45.814Z,97641.00
2022-12-03T02:36:14.470Z,97644.00
2022-12-03T02:38:45.088Z,97650.00
2022-12-03T02:41:37.466Z,97668.00
2022-12-03T02:44:07.938Z,97662.00
2022-12-03T02:46:37.262Z,97658.00
2022-12-03T02:49:07.145Z,97653.00
2022-12-03T02:51:36.161Z,97647.00
2022-12-03T02:54:05.293Z,97651.00
2022-12-03T02:56:34.564Z,97661.00
2022-12-03T02:59:06.709Z,97661.00
2022-12-03T03:01:35.837Z,97652.00
2022-12-03T03:04:05.617Z,97666.00
2022-12-03T03:06:34.946Z,97665.00
2022-12-03T03:09:04.594Z,97664.00
2022-12-03T03:11:33.014Z,97656.00
2022-12-03T03:14:03.015Z,97665.00
2022-12-03T03:16:34.798Z,97672.00
2022-12-03T03:19:03.682Z,97670.00
2022-12-03T03:21:31.979Z,97665.00
2022-12-03T03:24:00.115Z,97678.00
2022-12-03T03:26:28.342Z,97674.00
2022-12-03T03:28:57.551Z,97677.00
2022-12-03T03:31:25.968Z,97667.00
2022-12-03T03:33:55.602Z,97666.00
2022-12-03T03:36:24.296Z,97664.00
2022-12-03T03:38:53.073Z,97666.00
2022-12-03T03:41:22.460Z,97664.00
2022-12-03T03:43:51.572Z,97666.00
2022-12-03T03:46:21.385Z,97661.00
2022-12-03T03:48:51.193Z,97673.00
2022-12-03T03:51:21.882Z,97660.00
2022-12-03T03:53:52.550Z,97674.00
2022-12-03T03:56:23.298Z,97673.00
2022-12-03T03:58:51.511Z,97654.00
2022-12-03T04:01:20.286Z,97674.00
2022-12-03T04:03:48.545Z,97666.00
2022-12-03T04:06:16.884Z,97661.00
2022-12-03T04:08:47.088Z,97661.00
2022-12-03T04:11:32.924Z,97655.00
2022-12-03T04:14:01.164Z,97655.00
2022-12-03T04:16:29.698Z,97655.00
2022-12-03T04:18:57.972Z,97656.00
2022-12-03T04:21:43.548Z,97634.00
2022-12-03T04:24:13.293Z,97641.00
2022-12-03T04:26:59.349Z,97644.00
2022-12-03T04:29:27.515Z,97642.00
2022-12-03T04:32:12.659Z,97648.00
2022-12-03T04:34:58.278Z,97644.00
2022-12-03T04:37:26.688Z,97647.00
2022-12-03T04:39:56.231Z,97642.00
2022-12-03T04:42:24.404Z,97639.00
2022-12-03T04:44:52.875Z,97635.00
2022-12-03T04:47:23.045Z,97635.00
2022-12-03T04:49:52.848Z,97629.00
2022-12-03T04:52:22.540Z,97633.00
2022-12-03T04:54:50.744Z,97633.00
2022-12-03T04:57:20.224Z,97633.00
2022-12-03T04:59:48.568Z,97637.00
2022-12-03T05:02:16.814Z,97649.00
2022-12-03T05:04:45.095Z,97651.00
2022-12-03T05:07:13.302Z,97651.00
2022-12-03T05:09:41.515Z,97648.00
2022-12-03T05:12:09.829Z,97637.00
2022-12-03T05:14:39.443Z,97644.00
2022-12-03T05:17:07.791Z,97643.00
2022-12-03T05:19:53.482Z,97642.00
2022-12-03T05:22:21.768Z,97636.00
2022-12-03T05:24:49.893Z,97649.00
2022-12-03T05:27:23.348Z,97635.00
2022-12-03T05:29:54.215Z,97635.00
2022-12-03T05:32:22.481Z,97633.00
2022-12-03T05:34:50.792Z,97630.00
2022-12-03T05:37:19.334Z,97639.00
2022-12-03T05:39:47.699Z,97635.00
2022-12-03T05:42:33.523Z,97635.00
2022-12-03T05:45:03.059Z,97646.00
2022-12-03T05:47:31.244Z,97622.00
2022-12-03T05:50:14.552Z,97637.00
2022-12-03T05:52:42.945Z,97634.00
2022-12-03T05:55:12.644Z,97626.00
2022-12-03T05:57:40.817Z,97627.00
2022-12-03T06:00:17.792Z,97629.00
2022-12-03T06:02:46.481Z,97621.00
2022-12-03T06:05:17.050Z,97616.00
2022-12-03T06:07:45.282Z,97624.00
2022-12-03T06:10:18.035Z,97635.00
2022-12-03T06:12:46.376Z,97626.00
2022-12-03T06:15:16.526Z,97639.00
2022-12-03T06:17:44.983Z,97624.00
2022-12-03T06:20:17.900Z,97639.00
2022-12-03T06:22:46.868Z,97642.00
2022-12-03T06:25:16.196Z,97631.00
2022-12-03T06:27:44.562Z,97634.00
2022-12-03T06:30:15.633Z,97644.00
2022-12-03T06:32:43.890Z,97640.00
2022-12-03T06:35:12.616Z,97641.00
2022-12-03T06:37:40.944Z,97635.00
2022-12-03T06:40:10.703Z,97642.00
2022-12-03T06:42:38.865Z,97647.00
2022-12-03T06:45:08.744Z,97649.00
2022-12-03T06:47:38.567Z,97653.00
2022-12-03T06:50:09.791Z,97639.00
2022-12-03T06:52:38.060Z,97652.00
2022-12-03T06:55:07.742Z,97644.00
2022-12-03T06:57:35.935Z,97634.00
2022-12-03T07:00:08.825Z,97643.00
2022-12-03T07:02:38.602Z,97652.00
2022-12-03T07:05:08.676Z,97655.00
2022-12-03T07:07:36.933Z,97658.00
2022-12-03T07:10:06.697Z,97657.00
2022-12-03T07:12:35.165Z,97664.00
2022-12-03T07:15:03.533Z,97663.00
2022-12-03T07:17:31.881Z,97668.00
2022-12-03T07:20:01.503Z,97659.00
2022-12-03T07:22:29.698Z,97662.00
2022-12-03T07:24:57.867Z,97657.00
2022-12-03T07:27:26.122Z,97677.00
2022-12-03T07:29:54.382Z,97672.00
2022-12-03T07:32:22.522Z,97659.00
2022-12-03T07:34:50.992Z,97641.00
2022-12-03T07:37:23.323Z,97657.00
2022-12-03T07:39:52.395Z,97653.00
2022-12-03T07:42:20.738Z,97655.00
2022-12-03T07:44:49.059Z,97651.00
2022-12-03T07:47:17.336Z,97648.00
2022-12-03T07:49:45.585Z,97648.00
2022-12-03T07:52:13.812Z,97654.00
2022-12-03T07:54:43.374Z,97641.00
2022-12-03T07:57:11.577Z,97662.00
2022-12-03T07:59:39.759Z,97658.00
2022-12-03T08:02:11.335Z,97643.00
2022-12-03T08:04:40.072Z,97652.00
2022-12-03T08:07:08.300Z,97648.00
2022-12-03T08:09:36.476Z,97647.00
2022-12-03T08:12:17.103Z,97652.00
2022-12-03T08:14:45.387Z,97637.00
2022-12-03T08:17:17.796Z,97634.00
2022-12-03T08:19:48.229Z,97634.00
2022-12-03T08:22:17.651Z,97632.00
2022-12-03T08:24:46.096Z,97636.00
2022-12-03T08:27:20.148Z,97623.00
2022-12-03T08:29:48.415Z,97636.00
2022-12-03T08:32:16.710Z,97640.00
2022-12-03T08:34:46.085Z,97626.00
2022-12-03T08:37:19.415Z,97627.00
2022-12-03T08:39:50.378Z,97622.00
2022-12-03T08:42:42.869Z,97615.00
2022-12-03T08:45:41.020Z,97614.00
2022-12-03T08:48:43.975Z,97635.00
2022-12-03T08:51:25.163Z,97629.00
2022-12-03T08:54:02.170Z,97631.00
2022-12-03T08:56:36.865Z,97620.00
2022-12-03T08:59:26.710Z,97629.00
2022-12-03T09:01:55.209Z,97608.00
2022-12-03T09:04:32.165Z,97634.00
2022-12-03T09:07:00.422Z,97624.00
2022-12-03T09:09:28.774Z,97627.00
2022-12-03T09:11:57.386Z,97623.00
2022-12-03T09:14:26.914Z,97633.00
2022-12-03T09:16:56.312Z,97625.00
2022-12-03T09:19:25.878Z,97628.00
2022-12-03T09:21:55.243Z,97634.00
2022-12-03T09:24:23.623Z,97636.00
2022-12-03T09:26:51.960Z,97625.00
2022-12-03T09:29:20.190Z,97634.00
2022-12-03T09:31:49.938Z,97632.00
2022-12-03T09:34:18.263Z,97631.00
2022-12-03T09:36:46.440Z,97637.00
2022-12-03T09:39:14.651Z,97646.00
2022-12-03T09:41:44.390Z,97644.00
2022-12-03T09:44:17.674Z,97638.00
2022-12-03T09:46:49.765Z,97643.00
2022-12-03T09:49:20.573Z,97647.00
2022-12-03T09:51:49.191Z,97635.00
2022-12-03T09:54:25.431Z,97643.00
2022-12-03T09:56:55.319Z,97637.00
2022-12-03T09:59:27.288Z,97642.00
2022-12-03T10:01:57.143Z,97632.00
2022-12-03T10:04:26.045Z,97641.00
2022-12-03T10:06:54.401Z,97636.00
2022-12-03T10:09:27.144Z,97614.00
2022-12-03T10:11:56.903Z,97609.00
2022-12-03T10:14:25.411Z,97601.00
2022-12-03T10:16:53.783Z,97584.00
2022-12-03T10:19:27.626Z,97590.00
2022-12-03T10:21:56.609Z,97596.00
2022-12-03T10:24:29.573Z,97591.00
2022-12-03T10:27:00.406Z,97599.00
2022-12-03T10:29:34.197Z,97599.00
2022-12-03T10:32:05.459Z,97609.00
2022-12-03T10:34:38.403Z,97605.00
2022-12-03T10:37:17.577Z,97590.00
2022-12-03T10:39:59.462Z,97594.00
2022-12-03T10:57:07.201Z,97582.00
2022-12-03T10:59:36.255Z,97573.00
2022-12-03T11:02:05.117Z,97573.00
2022-12-03T11:04:37.065Z,97575.00
2022-12-03T11:07:15.277Z,97568.00
2022-12-03T11:09:46.435Z,97577.00
2022-12-03T11:12:23.934Z,97555.00
2022-12-03T11:15:08.592Z,97548.00
2022-12-03T11:17:52.083Z,97558.00
2022-12-03T11:21:04.572Z,97546.00
2022-12-03T11:24:25.675Z,97544.00
2022-12-03T11:27:21.754Z,97533.00
2022-12-03T11:30:00.290Z,97532.00
2022-12-03T11:33:06.146Z,97546.00
2022-12-03T11:36:15.291Z,97544.00
2022-12-03T11:38:58.296Z,97531.00
2022-12-03T11:41:32.980Z,97537.00
2022-12-03T11:44:32.372Z,97538.00
2022-12-03T11:47:08.914Z,97530.00
2022-12-03T11:49:46.779Z,97537.00
2022-12-03T11:52:31.668Z,97542.00
2022-12-03T11:55:05.548Z,97533.00
2022-12-03T11:57:40.378Z,97528.00
2022-12-03T12:00:22.659Z,97526.00
2022-12-03T12:02:53.776Z,97516.00
2022-12-03T12:05:27.765Z,97500.00
2022-12-03T12:07:57.714Z,97513.00
2022-12-03T12:10:40.540Z,97515.00
2022-12-03T12:13:26.570Z,97504.00
2022-12-03T12:15:56.364Z,97505.00
2022-12-03T12:18:36.577Z,97497.00
2022-12-03T12:21:43.957Z,97499.00
2022-12-03T12:24:46.692Z,97516.00
2022-12-03T12:27:17.366Z,97503.00
2022-12-03T12:29:52.703Z,97500.00
2022-12-03T12:32:27.529Z,97493.00
2022-12-03T12:35:00.969Z,97496.00
2022-12-03T12:37:37.226Z,97494.00
2022-12-03T12:40:15.107Z,97492.00
2022-12-03T12:42:50.605Z,97489.00
2022-12-03T12:45:22.435Z,97503.00
2022-12-03T12:48:04.243Z,97487.00
2022-12-03T12:50:33.451Z,97488.00
2022-12-03T12:53:13.335Z,97483.00
2022-12-03T12:55:42.518Z,97469.00
2022-12-03T12:58:19.481Z,97463.00
2022-12-03T13:00:52.651Z,97475.00
2022-12-03T13:03:26.002Z,97491.00
2022-12-03T13:05:57.301Z,97479.00
2022-12-03T13:08:31.915Z,97475.00
2022-12-03T13:11:02.751Z,97478.00
2022-12-03T13:13:43.607Z,97474.00
2022-12-03T13:16:20.192Z,97476.00
2022-12-03T13:18:55.056Z,97467.00
2022-12-03T13:21:38.257Z,97457.00
2022-12-03T13:24:35.121Z,97487.00
2022-12-03T13:27:21.568Z,97477.00
2022-12-03T13:29:55.624Z,97476.00
2022-12-03T13:32:30.855Z,97477.00
2022-12-03T13:35:06.331Z,97474.00
2022-12-03T13:37:35.190Z,97467.00
2022-12-03T13:40:21.746Z,97463.00
2022-12-03T13:42:50.044Z,97468.00
2022-12-03T13:45:37.596Z,97468.00
2022-12-03T13:48:18.816Z,97458.00
2022-12-03T13:50:48.513Z,97462.00
2022-12-03T13:53:24.554Z,97471.00
2022-12-03T13:55:59.002Z,97465.00
2022-12-03T13:58:27.468Z,97454.00
2022-12-03T14:00:55.786Z,97448.00
2022-12-03T14:03:24.532Z,97467.00
2022-12-03T14:05:54.106Z,97474.00
2022-12-03T14:08:22.386Z,97440.00
2022-12-03T14:10:54.226Z,97436.00
2022-12-03T14:13:25.576Z,97447.00
2022-12-03T14:15:53.936Z,97445.00
2022-12-03T14:18:22.347Z,97447.00
2022-12-03T14:20:50.703Z,97451.00
2022-12-03T14:23:20.183Z,97457.00
2022-12-03T14:25:48.525Z,97449.00
2022-12-03T14:28:16.675Z,97440.00
2022-12-03T14:30:44.928Z,97448.00
2022-12-03T14:33:13.404Z,97440.00
2022-12-03T14:35:41.838Z,97439.00
2022-12-03T14:38:10.132Z,97438.00
2022-12-03T14:40:39.722Z,97450.00
2022-12-03T14:43:07.895Z,97455.00
2022-12-03T14:45:36.249Z,97458.00
2022-12-03T14:48:05.570Z,97461.00
2022-12-03T14:50:33.810Z,97470.00
2022-12-03T14:53:02.003Z,97454.00
2022-12-03T14:55:30.612Z,97456.00
2022-12-03T14:58:00.194Z,97431.00
2022-12-03T15:00:28.448Z,97443.00
2022-12-03T15:02:56.758Z,97445.00
2022-12-03T15:05:28.887Z,97453.00
2022-12-03T15:07:57.475Z,97451.00
2022-12-03T15:10:25.713Z,97446.00
2022-12-03T15:12:53.948Z,97442.00
2022-12-03T15:15:23.631Z,97448.00
2022-12-03T15:17:51.869Z,97442.00
2022-12-03T15:20:20.168Z,97439.00
2022-12-03T15:22:48.364Z,97445.00
2022-12-03T15:25:24.080Z,97448.00
2022-12-03T15:27:52.469Z,97436.00
2022-12-03T15:30:21.383Z,97442.00
2022-12-03T15:32:51.031Z,97432.00
2022-12-03T15:35:19.264Z,97446.00
2022-12-03T15:37:47.660Z,97452.00
2022-12-03T15:40:16.138Z,97456.00
2022-12-03T15:42:44.439Z,97453.00
2022-12-03T15:45:15.392Z,97449.00
2022-12-03T15:47:44.199Z,97432.00
2022-12-03T15:50:14.388Z,97455.00
2022-12-03T15:52:42.732Z,97435.00
2022-12-03T15:55:11.690Z,97434.00
2022-12-03T15:57:40.124Z,97439.00
2022-12-03T16:00:11.789Z,97432.00
2022-12-03T16:02:50.727Z,97448.00
2022-12-03T16:05:22.180Z,97443.00
2022-12-03T16:07:50.626Z,97451.00
2022-12-03T16:10:21.429Z,97452.00
2022-12-03T16:12:50.133Z,97447.00
2022-12-03T16:15:23.552Z,97453.00
2022-12-03T16:17:54.832Z,97448.00
2022-12-03T16:20:24.830Z,97444.00
2022-12-03T16:22:53.174Z,97453.00
2022-12-03T16:25:21.550Z,97461.00
2022-12-03T16:27:50.076Z,97454.00
2022-12-03T16:30:19.030Z,97456.00
2022-12-03T16:32:47.335Z,97459.00
2022-12-03T16:35:15.794Z,97457.00
2022-12-03T16:37:45.609Z,97462.00
2022-12-03T16:40:14.076Z,97457.00
2022-12-03T16:42:42.412Z,97462.00
2022-12-03T16:45:33.848Z,97450.00
2022-12-03T16:48:03.203Z,97471.00
2022-12-03T16:50:31.505Z,97452.00
2022-12-03T16:53:01.099Z,97450.00
2022-12-03T16:55:29.563Z,97447.00
2022-12-03T16:57:57.829Z,97461.00
2022-12-03T17:00:26.276Z,97474.00
2022-12-03T17:02:54.804Z,97452.00
2022-12-03T17:05:23.399Z,97461.00
2022-12-03T17:07:51.797Z,97459.00
2022-12-03T17:10:21.474Z,97456.00
2022-12-03T17:15:39.487Z,97452.00
2022-12-03T17:18:09.544Z,97442.00
2022-12-03T17:20:38.252Z,97441.00
2022-12-03T17:23:06.459Z,97441.00
2022-12-03T17:25:36.555Z,97436.00
2022-12-03T17:28:05.265Z,97423.00
2022-12-03T17:30:33.590Z,97428.00
2022-12-03T17:33:03.339Z,97417.00
2022-12-03T17:35:31.542Z,97420.00
2022-12-03T17:37:59.760Z,97434.00
2022-12-03T17:40:28.119Z,97439.00
2022-12-03T17:42:57.760Z,97426.00
2022-12-03T17:45:27.475Z,97428.00
2022-12-03T17:47:55.607Z,97432.00
2022-12-03T17:50:24.242Z,97431.00
2022-12-03T17:52:52.593Z,97417.00
2022-12-03T17:55:31.032Z,97427.00
2022-12-03T17:58:06.755Z,97435.00
2022-12-03T18:00:35.240Z,97426.00
2022-12-03T18:03:03.423Z,97436.00
2022-12-03T18:05:31.674Z,97420.00
2022-12-03T18:07:59.883Z,97440.00
2022-12-03T18:10:28.318Z,97433.00
2022-12-03T18:13:01.412Z,97421.00
2022-12-03T18:15:33.376Z,97435.00
2022-12-03T18:18:02.293Z,97415.00
2022-12-03T18:20:30.931Z,97419.00
2022-12-03T18:23:00.253Z,97406.00
2022-12-03T18:25:29.285Z,97417.00
2022-12-03T18:27:58.165Z,97422.00
2022-12-03T18:30:26.407Z,97417.00
2022-12-03T18:32:56.439Z,97404.00
2022-12-03T18:35:25.181Z,97404.00
2022-12-03T18:37:53.596Z,97406.00
2022-12-03T18:40:27.008Z,97417.00
2022-12-03T18:42:57.958Z,97406.00
2022-12-03T18:45:26.265Z,97399.00
2022-12-03T18:47:57.748Z,97405.00
2022-12-03T18:50:26.071Z,97393.00
2022-12-03T18:52:54.358Z,97401.00
2022-12-03T18:55:23.541Z,97404.00
2022-12-03T18:57:51.982Z,97401.00
2022-12-03T19:00:20.972Z,97392.00
2022-12-03T19:03:04.927Z,97387.00
2022-12-03T19:05:37.709Z,97389.00
2022-12-03T19:08:14.023Z,97388.00
2022-12-03T19:10:44.184Z,97390.00
2022-12-03T19:13:13.019Z,97383.00
2022-12-03T19:15:41.303Z,97383.00
2022-12-03T19:18:09.553Z,97392.00
2022-12-03T19:20:41.971Z,97389.00
2022-12-03T19:23:11.041Z,97401.00
2022-12-03T19:25:40.048Z,97393.00
2022-12-03T19:28:09.110Z,97382.00
2022-12-03T19:30:38.016Z,97370.00
2022-12-03T19:33:08.161Z,97368.00
2022-12-03T19:35:42.876Z,97376.00
2022-12-03T19:38:11.675Z,97373.00
2022-12-03T19:40:40.315Z,97370.00
2022-12-03T19:43:08.811Z,97372.00
2022-12-03T19:45:38.388Z,97379.00
2022-12-03T19:48:07.052Z,97374.00
2022-12-03T19:50:35.328Z,97380.00
2022-12-03T19:53:05.042Z,97369.00
2022-12-03T19:55:37.076Z,97359.00
2022-12-03T19:58:05.318Z,97356.00
2022-12-03T20:00:35.105Z,97352.00
2022-12-03T20:03:03.590Z,97362.00
2022-12-03T20:05:35.333Z,97363.00
2022-12-03T20:08:06.275Z,97365.00
2022-12-03T20:10:35.954Z,97360.00
2022-12-03T20:13:04.984Z,97362.00
2022-12-03T20:15:33.118Z,97361.00
2022-12-03T20:18:01.367Z,97372.00
2022-12-03T20:20:29.746Z,97362.00
2022-12-03T20:22:57.929Z,97359.00
2022-12-03T20:25:27.494Z,97366.00
2022-12-03T20:27:55.784Z,97354.00
2022-12-03T20:30:24.789Z,97370.00
2022-12-03T20:32:53.054Z,97364.00
2022-12-03T20:35:21.204Z,97355.00
2022-12-03T20:37:49.394Z,97356.00
2022-12-03T20:40:17.782Z,97368.00
2022-12-03T20:42:49.460Z,97365.00
2022-12-03T20:45:17.870Z,97358.00
2022-12-03T20:47:46.095Z,97354.00
2022-12-03T20:50:14.389Z,97360.00
2022-12-03T20:52:52.889Z,97351.00
2022-12-03T20:55:30.841Z,97361.00
2022-12-03T20:58:00.691Z,97348.00
2022-12-03T21:00:29.498Z,97364.00
2022-12-03T21:02:58.104Z,97354.00
2022-12-03T21:05:26.973Z,97340.00
2022-12-03T21:07:55.243Z,97352.00
2022-12-03T21:10:44.814Z,97362.00
2022-12-03T21:13:19.030Z,97354.00
2022-12-03T21:15:47.985Z,97345.00
2022-12-03T21:18:18.769Z,97347.00
2022-12-03T21:20:49.089Z,97335.00
2022-12-03T21:23:17.235Z,97337.00
2022-12-03T21:25:45.427Z,97340.00
2022-12-03T21:28:13.556Z,97324.00
2022-12-03T21:30:43.135Z,97323.00
2022-12-03T21:33:11.367Z,97322.00
2022-12-03T21:35:40.254Z,97324.00
2022-12-03T21:38:08.543Z,97317.00
2022-12-03T21:40:36.846Z,97320.00
2022-12-03T21:43:05.132Z,97327.00
2022-12-03T21:45:33.324Z,97313.00
2022-12-03T21:48:02.940Z,97309.00
2022-12-03T21:50:31.141Z,97314.00
2022-12-03T21:52:59.317Z,97307.00
2022-12-03T21:55:27.868Z,97318.00
2022-12-03T21:57:56.148Z,97321.00
2022-12-03T22:00:24.677Z,97327.00
2022-12-03T22:02:52.994Z,97323.00
2022-12-03T22:05:22.545Z,97313.00
2022-12-03T22:07:50.881Z,97322.00
2022-12-03T22:10:19.270Z,97317.00
2022-12-03T22:12:47.412Z,97323.00
2022-12-03T22:15:19.216Z,97323.00
2022-12-03T22:17:48.083Z,97327.00
2022-12-03T22:20:16.787Z,97327.00
2022-12-03T22:22:46.362Z,97313.00
2022-12-03T22:25:14.670Z,97313.00
2022-12-03T22:27:42.892Z,97318.00
2022-12-03T22:30:11.918Z,97310.00
2022-12-03T22:32:40.249Z,97298.00
2022-12-03T22:35:09.495Z,97290.00
2022-12-03T22:37:37.731Z,97286.00
2022-12-03T22:40:09.489Z,97287.00
2022-12-03T22:42:37.709Z,97271.00
2022-12-03T22:45:07.585Z,97283.00
2022-12-03T22:47:35.804Z,97291.00
2022-12-03T22:50:04.255Z,97270.00
2022-12-03T22:52:32.592Z,97272.00
2022-12-03T22:55:00.749Z,97271.00
2022-12-03T22:57:30.307Z,97258.00
2022-12-03T22:59:58.438Z,97254.00
2022-12-03T23:02:26.667Z,97265.00
2022-12-03T23:04:56.732Z,97254.00
2022-12-03T23:07:25.034Z,97263.00
2022-12-03T23:09:53.705Z,97269.00
2022-12-03T23:12:22.281Z,97269.00
2022-12-03T23:14:55.301Z,97271.00
2022-12-03T23:17:23.485Z,97277.00
2022-12-03T23:19:51.875Z,97284.00
2022-12-03T23:22:20.471Z,97281.00
2022-12-03T23:24:48.776Z,97283.00
2022-12-03T23:27:17.233Z,97273.00
2022-12-03T23:29:45.689Z,97274.00
2022-12-03T23:32:15.444Z,97277.00
2022-12-03T23:34:43.895Z,97280.00
2022-12-03T23:37:12.223Z,97270.00
2022-12-03T23:39:40.679Z,97262.00
2022-12-03T23:42:09.043Z,97270.00
2022-12-03T23:44:37.459Z,97276.00
2022-12-03T23:47:06.339Z,97288.00
2022-12-03T23:49:36.550Z,97274.00
2022-12-03T23:52:05.129Z,97279.00
2022-12-03T23:54:34.027Z,97274.00
2022-12-03T23:57:02.490Z,97275.00
2022-12-03T23:59:31.440Z,97257.00
